Time;durP1;ratioP1;P1;durP2;ratioP2;P2;SDS_P1;SDS_P2;PMS_P1;PMS_P2;Temp;Humidity;BMP_temperature;BMP_pressure;BME280_temperature;BME280_humidity;BME280_pressure;Samples;Min_cycle;Max_cycle;Signal;HPM_P1;HPM_P2
2022/12/29 00:00:07;;;;;;;3.73;1.30;;;;;;;-3.47;79.68;96387.85;1801177;80;21009;-73
2022/12/29 00:02:41;;;;;;;2.90;1.33;;;;;;;-3.62;79.04;96391.87;1801037;80;21546;-73
2022/12/29 00:05:08;;;;;;;5.00;1.70;;;;;;;-3.63;79.88;96387.50;1801009;80;21023;-72
2022/12/29 00:07:35;;;;;;;8.00;4.20;;;;;;;-3.71;79.55;96391.41;1801228;80;21027;-72
2022/12/29 00:10:02;;;;;;;10.17;4.80;;;;;;;-3.73;80.13;96386.20;1801017;80;21044;-72
2022/12/29 00:15:36;;;;;;;4.90;2.63;;;;;;;-3.73;79.71;96390.45;1801230;80;21036;-72
2022/12/29 00:17:42;;;;;;;7.70;3.70;;;;;;;-3.71;80.14;96381.97;1793450;80;21017;-73
2022/12/29 00:36:44;;;;;;;1.80;1.00;;;;;;;-3.76;80.20;96377.41;1787389;80;20965;-73
2022/12/29 00:44:52;;;;;;;1.97;0.87;;;;;;;-3.72;79.96;96382.80;1787249;80;21472;-72
2022/12/29 00:47:19;;;;;;;5.43;3.30;;;;;;;-3.79;79.87;96384.59;1786890;80;21048;-72
2022/12/29 00:49:46;;;;;;;2.67;1.50;;;;;;;-3.79;80.34;96383.30;1787196;80;21049;-71
2022/12/29 00:52:14;;;;;;;1.87;1.40;;;;;;;-3.86;80.06;96382.52;1787158;80;21447;-72
2022/12/29 00:54:44;;;;;;;1.77;0.90;;;;;;;-3.79;80.91;96381.14;1787085;80;21491;-72
2022/12/29 00:57:10;;;;;;;1.50;1.03;;;;;;;-3.78;80.43;96380.31;1786991;80;21009;-72
2022/12/29 00:59:39;;;;;;;3.23;1.67;;;;;;;-3.72;80.63;96378.92;1787065;80;21029;-71
2022/12/29 01:02:07;;;;;;;5.40;2.10;;;;;;;-3.73;80.35;96382.33;1787054;80;21033;-71
2022/12/29 01:04:34;;;;;;;3.63;1.40;;;;;;;-3.77;80.52;96379.11;1787497;80;21012;-71
2022/12/29 01:07:01;;;;;;;1.77;1.20;;;;;;;-3.77;80.35;96378.23;1786993;80;21005;-71
2022/12/29 01:12:13;;;;;;;6.23;1.30;;;;;;;-3.63;80.76;96373.73;1787178;80;21535;-71
2022/12/29 01:14:39;;;;;;;3.67;1.53;;;;;;;-3.54;80.87;96362.57;1787215;80;21044;-71
2022/12/29 01:17:06;;;;;;;3.37;1.10;;;;;;;-3.49;80.67;96360.68;1786990;80;21025;-71
2022/12/29 01:19:33;;;;;;;3.47;1.30;;;;;;;-3.47;80.51;96365.05;1787186;80;20985;-71
2022/12/29 01:22:00;;;;;;;1.57;0.97;;;;;;;-3.52;79.77;96358.37;1786993;80;20978;-71
2022/12/29 01:24:28;;;;;;;2.03;1.13;;;;;;;-3.67;79.52;96362.80;1787180;80;21428;-71
2022/12/29 01:26:54;;;;;;;3.43;1.50;;;;;;;-3.70;80.15;96359.27;1787048;80;21130;-71
2022/12/29 01:29:21;;;;;;;1.10;0.70;;;;;;;-3.83;79.56;96346.59;1787469;80;20974;-71
2022/12/29 01:31:49;;;;;;;3.47;1.00;;;;;;;-3.84;80.13;96351.66;1787106;80;21049;-73
2022/12/29 01:34:16;;;;;;;2.73;0.80;;;;;;;-3.76;80.78;96352.91;1786997;80;20990;-72
2022/12/29 01:36:42;;;;;;;3.57;1.87;;;;;;;-3.76;80.18;96350.34;1787103;80;21462;-73
2022/12/29 01:39:09;;;;;;;5.50;3.30;;;;;;;-3.71;80.73;96352.31;1787127;80;21151;-72
2022/12/29 01:41:35;;;;;;;6.23;3.33;;;;;;;-3.66;80.53;96345.22;1787211;80;21017;-73
2022/12/29 01:44:02;;;;;;;3.33;1.97;;;;;;;-3.64;79.97;96347.47;1787091;80;21082;-73
2022/12/29 01:46:40;;;;;;;5.53;3.03;;;;;;;-3.80;79.49;96345.45;1787139;80;21009;-72
2022/12/29 01:49:26;;;;;;;3.80;1.90;;;;;;;-3.78;80.32;96347.70;1786427;80;21002;-73
2022/12/29 01:52:00;;;;;;;0.67;0.50;;;;;;;-3.77;79.83;96349.87;1787110;80;20930;-73
2022/12/29 01:54:37;;;;;;;1.57;0.90;;;;;;;-3.78;80.31;96348.99;1787148;80;21009;-73
2022/12/29 01:57:09;;;;;;;2.27;1.30;;;;;;;-3.88;79.67;96341.63;1787159;80;20982;-73
2022/12/29 01:59:41;;;;;;;2.37;1.57;;;;;;;-3.89;79.93;96342.83;1787152;80;20982;-73
2022/12/29 02:02:10;;;;;;;5.67;3.30;;;;;;;-3.99;79.84;96350.51;1786242;80;20981;-74
2022/12/29 02:04:40;;;;;;;1.60;1.20;;;;;;;-4.05;80.31;96335.64;1787072;80;20997;-75
2022/12/29 02:07:18;;;;;;;1.33;0.80;;;;;;;-4.09;80.12;96339.27;1787234;80;21017;-73
2022/12/29 02:09:52;;;;;;;0.90;0.57;;;;;;;-4.07;80.75;96328.23;1786368;80;21025;-73
2022/12/29 02:12:21;;;;;;;3.50;1.10;;;;;;;-4.05;80.68;96331.77;1787063;80;21116;-74
2022/12/29 02:14:52;;;;;;;2.87;1.67;;;;;;;-3.98;80.86;96322.63;1787057;80;21085;-74
2022/12/29 02:17:46;;;;;;;2.60;1.00;;;;;;;-4.05;80.28;96326.62;1787229;80;21056;-74
2022/12/29 02:20:26;;;;;;;4.23;2.00;;;;;;;-4.12;80.70;96341.70;1792674;80;21019;-74
2022/12/29 02:23:33;;;;;;;12.67;5.73;;;;;;;-4.05;81.13;96333.47;1792791;80;21105;-74
2022/12/29 02:26:23;;;;;;;13.33;6.57;;;;;;;-4.08;80.87;96334.20;1791790;80;21056;-75
2022/12/29 02:28:55;;;;;;;16.30;7.83;;;;;;;-4.21;80.59;96329.23;1792584;80;21514;-75
2022/12/29 02:31:51;;;;;;;11.27;4.83;;;;;;;-4.28;80.70;96340.95;1792004;80;21554;-75
2022/12/29 02:35:03;;;;;;;2.50;1.30;;;;;;;-4.26;80.62;96325.55;1789425;80;21009;-74
2022/12/29 02:37:40;;;;;;;4.40;2.30;;;;;;;-4.30;80.52;96345.54;1792294;80;21029;-73
2022/12/29 02:40:46;;;;;;;2.97;1.70;;;;;;;-4.24;81.14;96333.83;1792794;80;21483;-73
2022/12/29 02:43:36;;;;;;;2.30;0.90;;;;;;;-4.32;80.40;96334.27;1792579;80;21518;-73
2022/12/29 02:46:15;;;;;;;2.20;1.10;;;;;;;-4.36;80.92;96331.92;1792302;80;21552;-72
2022/12/29 02:48:56;;;;;;;1.43;0.90;;;;;;;-4.28;81.25;96333.22;1791936;80;21132;-72
2022/12/29 02:51:34;;;;;;;2.03;1.23;;;;;;;-4.17;81.35;96329.46;1792150;80;21005;-72
2022/12/29 02:56:47;;;;;;;0.97;0.60;;;;;;;-4.26;80.59;96327.74;1788778;80;21475;-72
2022/12/29 02:59:14;;;;;;;1.03;0.80;;;;;;;-4.29;80.89;96323.70;1792629;80;21028;-72
2022/12/29 03:02:20;;;;;;;1.57;0.80;;;;;;;-4.26;81.19;96333.27;1792729;80;21487;-72
2022/12/29 03:05:10;;;;;;;1.47;1.03;;;;;;;-4.27;80.94;96323.38;1792864;80;21044;-72
2022/12/29 03:07:57;;;;;;;2.90;0.97;;;;;;;-4.25;81.10;96333.77;1792858;80;21021;-73
2022/12/29 03:10:46;;;;;;;6.03;2.60;;;;;;;-4.31;80.70;96332.16;1792686;80;21025;-74
2022/12/29 03:16:47;;;;;;;1.77;1.10;;;;;;;-4.44;80.72;96331.54;1792809;80;21494;-74
2022/12/29 03:19:28;;;;;;;3.87;1.47;;;;;;;-4.53;80.97;96336.25;1799125;80;21506;-73
2022/12/29 03:24:52;;;;;;;4.37;2.10;;;;;;;-4.40;82.01;96339.04;1799985;80;20992;-72
2022/12/29 03:27:24;;;;;;;1.40;0.70;;;;;;;-4.44;81.23;96330.25;1801183;80;21104;-72
2022/12/29 03:29:57;;;;;;;0.80;0.57;;;;;;;-4.50;81.44;96327.38;1801285;80;20993;-72
2022/12/29 03:32:32;;;;;;;1.47;0.68;;;;;;;-4.43;81.43;96332.45;1801286;80;20973;-72
2022/12/29 03:35:00;;;;;;;4.77;0.60;;;;;;;-4.39;81.63;96329.20;1801134;80;21047;-72
2022/12/29 03:37:41;;;;;;;1.57;0.80;;;;;;;-4.28;82.05;96328.06;1801130;80;21012;-72
2022/12/29 03:40:09;;;;;;;1.30;0.60;;;;;;;-4.18;81.82;96325.55;1801157;80;20985;-72
2022/12/29 03:42:37;;;;;;;2.27;0.80;;;;;;;-4.16;81.58;96329.96;1801033;80;21053;-72
2022/12/29 03:45:07;;;;;;;1.57;0.60;;;;;;;-4.15;81.35;96328.27;1801130;80;21511;-72
2022/12/29 03:47:33;;;;;;;1.47;0.90;;;;;;;-4.09;81.44;96332.83;1800762;80;21518;-73
2022/12/29 03:50:01;;;;;;;1.90;0.93;;;;;;;-4.09;81.32;96332.83;1801102;80;20985;-72
2022/12/29 03:52:27;;;;;;;2.43;0.90;;;;;;;-4.06;81.63;96330.39;1801111;80;21001;-72
2022/12/29 03:54:54;;;;;;;4.37;1.80;;;;;;;-3.99;81.47;96337.21;1801181;80;21023;-72
2022/12/29 03:57:21;;;;;;;13.67;6.17;;;;;;;-4.04;81.05;96333.52;1801204;80;21493;-72
2022/12/29 03:59:52;;;;;;;12.47;6.87;;;;;;;-4.14;80.36;96339.04;1799946;80;21004;-72
2022/12/29 04:02:18;;;;;;;20.43;7.93;;;;;;;-4.20;80.84;96337.05;1767260;80;21039;-72
2022/12/29 04:04:45;;;;;;;27.23;11.30;;;;;;;-4.23;80.79;96338.60;1798183;80;20997;-72
2022/12/29 04:07:12;;;;;;;36.60;14.40;;;;;;;-4.20;80.99;96340.91;1801067;80;21459;-72
2022/12/29 04:09:39;;;;;;;7.83;4.03;;;;;;;-4.19;81.03;96335.34;1801126;80;20973;-72
2022/12/29 04:12:07;;;;;;;9.40;4.00;;;;;;;-4.14;81.09;96331.30;1801065;80;21009;-72
2022/12/29 04:14:35;;;;;;;15.53;6.63;;;;;;;-4.15;80.75;96326.98;1801219;80;20984;-72
2022/12/29 04:17:01;;;;;;;25.53;10.30;;;;;;;-4.20;80.68;96332.30;1801007;80;21530;-72
2022/12/29 04:19:28;;;;;;;22.77;9.27;;;;;;;-4.24;80.52;96325.22;1800864;80;21495;-72
2022/12/29 04:21:55;;;;;;;13.63;6.43;;;;;;;-4.41;80.04;96326.56;1767111;80;21020;-72
2022/12/29 04:24:21;;;;;;;14.93;7.27;;;;;;;-4.42;80.69;96329.05;1801023;80;20988;-72
2022/12/29 04:26:50;;;;;;;25.53;11.97;;;;;;;-4.57;80.41;96330.45;1801058;80;21012;-72
2022/12/29 04:29:35;;;;;;;15.07;7.90;;;;;;;-4.65;80.36;96322.33;1800947;80;21073;-72
2022/12/29 04:32:04;;;;;;;26.93;12.50;;;;;;;-4.66;80.83;96329.97;1798219;80;21017;-72
2022/12/29 04:34:33;;;;;;;29.67;12.43;;;;;;;-4.70;81.46;96330.64;1800713;80;21064;-72
2022/12/29 04:37:00;;;;;;;76.33;29.90;;;;;;;-4.73;81.26;96335.64;1801075;80;21008;-72
2022/12/29 04:39:27;;;;;;;69.43;28.90;;;;;;;-4.76;81.28;96332.50;1801030;80;21024;-74
2022/12/29 04:41:54;;;;;;;85.30;35.40;;;;;;;-4.78;81.54;96334.10;1801180;80;20981;-73
2022/12/29 04:44:21;;;;;;;58.43;22.47;;;;;;;-4.78;81.78;96336.68;1801092;80;21141;-74
2022/12/29 04:46:58;;;;;;;46.67;17.33;;;;;;;-4.68;82.17;96332.89;1797554;80;21028;-74
2022/12/29 04:49:45;;;;;;;47.57;18.93;;;;;;;-4.76;81.25;96331.21;1700999;84;20990;-74
2022/12/29 04:52:13;;;;;;;41.93;17.67;;;;;;;-4.88;81.43;96334.02;1696570;84;21027;-74
2022/12/29 04:54:40;;;;;;;7.00;3.83;;;;;;;-4.94;81.32;96337.95;1718998;81;20943;-74
2022/12/29 04:57:08;;;;;;;9.20;4.40;;;;;;;-4.92;81.73;96344.08;1767219;80;21550;-75
2022/12/29 04:59:36;;;;;;;6.73;4.33;;;;;;;-4.77;82.24;96343.58;1800808;80;21508;-75
2022/12/29 05:02:04;;;;;;;5.23;3.20;;;;;;;-4.76;81.65;96348.33;1801040;80;21009;-75
2022/12/29 05:04:32;;;;;;;7.73;3.43;;;;;;;-4.78;81.88;96346.98;1800974;80;20987;-75
2022/12/29 05:06:59;;;;;;;5.27;2.23;;;;;;;-4.78;81.68;96346.98;1801220;80;21539;-75
2022/12/29 05:09:27;;;;;;;8.73;4.20;;;;;;;-4.82;81.60;96347.20;1801160;80;21022;-75
2022/12/29 05:11:53;;;;;;;12.53;5.43;;;;;;;-4.88;82.20;96346.89;1772070;80;21034;-75
2022/12/29 05:14:20;;;;;;;9.80;3.00;;;;;;;-4.88;81.77;96349.87;1801151;80;21005;-75
2022/12/29 05:16:46;;;;;;;4.83;2.47;;;;;;;-4.96;81.61;96345.99;1800994;80;20995;-75
2022/12/29 05:19:13;;;;;;;8.73;4.13;;;;;;;-4.94;82.39;96349.13;1797795;80;21469;-75
2022/12/29 05:21:39;;;;;;;6.83;3.50;;;;;;;-4.89;82.55;96350.28;1795148;80;21001;-75
2022/12/29 05:24:06;;;;;;;10.03;4.53;;;;;;;-4.87;82.43;96344.78;1795426;80;21093;-75
2022/12/29 05:26:33;;;;;;;5.90;3.20;;;;;;;-4.83;82.60;96344.56;1795114;80;21002;-75
2022/12/29 05:29:01;;;;;;;3.87;2.20;;;;;;;-4.75;82.44;96348.83;1793514;80;20986;-75
2022/12/29 05:31:27;;;;;;;3.07;1.97;;;;;;;-4.80;81.88;96346.88;1795458;80;21022;-75
2022/12/29 05:33:54;;;;;;;2.97;1.93;;;;;;;-4.82;81.83;96342.05;1795227;80;21023;-75
2022/12/29 05:36:21;;;;;;;5.13;3.60;;;;;;;-4.75;82.43;96352.28;1795640;80;20978;-75
2022/12/29 05:38:50;;;;;;;8.83;4.50;;;;;;;-4.77;81.79;96364.59;1794882;80;21117;-76
2022/12/29 05:41:17;;;;;;;6.40;3.37;;;;;;;-4.82;82.18;96356.20;1795424;80;21042;-75
2022/12/29 05:43:56;;;;;;;3.33;2.10;;;;;;;-4.82;81.90;96360.48;1795467;80;21022;-75
2022/12/29 05:46:31;;;;;;;3.77;2.00;;;;;;;-4.80;82.19;96362.73;1795203;80;20955;-75
2022/12/29 05:48:59;;;;;;;44.73;4.23;;;;;;;-4.72;82.60;96364.42;1789798;80;21038;-75
2022/12/29 05:51:28;;;;;;;5.23;3.20;;;;;;;-4.65;82.45;96358.80;1793772;80;21457;-75
2022/12/29 05:53:54;;;;;;;4.73;2.77;;;;;;;-4.65;82.17;96362.25;1795552;80;21500;-75
2022/12/29 05:56:22;;;;;;;3.40;1.83;;;;;;;-4.64;82.38;96364.41;1795482;80;21010;-75
2022/12/29 05:58:50;;;;;;;2.47;1.80;;;;;;;-4.62;81.98;96370.12;1794296;80;21523;-76
2022/12/29 06:01:17;;;;;;;4.83;1.70;;;;;;;-4.73;81.35;96365.24;1795445;80;20982;-75
2022/12/29 06:03:44;;;;;;;3.23;1.63;;;;;;;-4.68;82.13;96363.79;1795400;80;21082;-75
2022/12/29 06:06:11;;;;;;;2.50;1.40;;;;;;;-4.65;81.95;96359.67;1795506;80;21010;-75
2022/12/29 06:08:37;;;;;;;2.50;1.73;;;;;;;-4.69;81.70;96356.44;1764438;80;21477;-75
2022/12/29 06:11:04;;;;;;;2.23;1.30;;;;;;;-4.74;81.56;96365.62;1795496;80;20967;-75
2022/12/29 06:13:31;;;;;;;2.70;1.53;;;;;;;-4.70;81.78;96371.42;1795634;80;20991;-75
2022/12/29 06:15:58;;;;;;;1.80;1.30;;;;;;;-4.75;81.71;96371.99;1795438;80;20998;-75
2022/12/29 06:18:26;;;;;;;2.00;1.37;;;;;;;-4.75;81.78;96372.87;1794297;80;21022;-75
2022/12/29 06:20:52;;;;;;;1.93;1.13;;;;;;;-4.68;82.11;96376.66;1786913;80;21050;-75
2022/12/29 06:23:20;;;;;;;2.63;0.90;;;;;;;-4.60;82.31;96369.80;1786949;80;21117;-75
2022/12/29 06:25:48;;;;;;;1.70;1.10;;;;;;;-4.58;81.85;96366.91;1787101;80;21010;-75
2022/12/29 06:28:14;;;;;;;2.83;0.83;;;;;;;-4.54;81.95;96368.34;1787086;80;20991;-75
2022/12/29 06:30:45;;;;;;;3.00;1.50;;;;;;;-4.57;81.72;96368.67;1787246;80;21003;-76
2022/12/29 06:33:12;;;;;;;1.77;1.00;;;;;;;-4.60;81.51;96383.09;1787291;80;20971;-75
2022/12/29 06:35:39;;;;;;;1.50;0.80;;;;;;;-4.75;81.17;96381.88;1787119;80;21544;-75
2022/12/29 06:38:06;;;;;;;2.17;0.90;;;;;;;-4.79;81.42;96374.79;1787285;80;21061;-75
2022/12/29 06:40:32;;;;;;;10.60;5.47;;;;;;;-4.78;82.14;96375.30;1787402;80;20999;-75
2022/12/29 06:43:01;;;;;;;9.03;4.20;;;;;;;-4.74;82.61;96372.47;1779508;80;21051;-75
2022/12/29 06:45:46;;;;;;;23.77;9.67;;;;;;;-4.66;83.08;96375.02;1787087;80;21003;-75
2022/12/29 06:48:12;;;;;;;29.17;14.30;;;;;;;-4.60;82.45;96368.92;1787286;80;21007;-75
2022/12/29 06:50:39;;;;;;;30.13;14.90;;;;;;;-4.57;82.48;96371.24;1786783;80;21090;-75
2022/12/29 06:53:05;;;;;;;23.63;9.53;;;;;;;-4.51;81.97;96374.94;1787280;80;21007;-75
2022/12/29 06:55:32;;;;;;;9.67;4.37;;;;;;;-4.43;82.45;96365.94;1787317;80;21465;-75
2022/12/29 06:58:00;;;;;;;33.93;17.77;;;;;;;-4.29;82.27;96372.65;1787263;80;21034;-75
2022/12/29 07:00:27;;;;;;;50.67;28.83;;;;;;;-4.16;82.78;96368.99;1749800;80;21458;-75
2022/12/29 07:02:57;;;;;;;41.87;24.00;;;;;;;-4.11;81.43;96373.09;1787383;80;21038;-75
2022/12/29 07:05:27;;;;;;;47.67;24.30;;;;;;;-4.13;81.50;96375.62;1786990;80;20991;-74
2022/12/29 07:07:55;;;;;;;31.40;17.17;;;;;;;-4.16;81.66;96363.84;1787286;80;21038;-75
2022/12/29 07:10:22;;;;;;;25.53;16.07;;;;;;;-4.09;81.82;96359.89;1787194;80;21030;-75
2022/12/29 07:12:48;;;;;;;31.90;17.27;;;;;;;-3.94;82.48;96361.52;1787116;80;21449;-73
2022/12/29 07:15:15;;;;;;;33.53;18.17;;;;;;;-3.79;82.75;96352.36;1787206;80;20987;-73
2022/12/29 07:17:42;;;;;;;34.93;19.63;;;;;;;-3.55;83.36;96350.09;1787355;80;20998;-73
2022/12/29 07:20:09;;;;;;;44.30;25.60;;;;;;;-3.36;82.81;96343.20;1792436;80;20994;-74
2022/12/29 07:22:36;;;;;;;36.07;18.80;;;;;;;-3.25;81.87;96342.02;1795625;80;21013;-74
2022/12/29 07:25:04;;;;;;;26.00;13.87;;;;;;;-3.22;81.50;96339.98;1795591;80;21452;-72
2022/12/29 07:27:30;;;;;;;24.87;13.33;;;;;;;-3.10;81.94;96338.84;1795494;80;20979;-72
2022/12/29 07:29:56;;;;;;;25.10;13.30;;;;;;;-2.96;81.75;96342.04;1795625;80;21018;-72
2022/12/29 07:32:23;;;;;;;56.57;28.67;;;;;;;-2.86;81.61;96336.88;1795420;80;20959;-72
2022/12/29 07:34:49;;;;;;;79.23;37.60;;;;;;;-2.82;81.06;96340.09;1795504;80;21060;-72
2022/12/29 07:37:16;;;;;;;86.30;41.97;;;;;;;-2.76;81.49;96335.19;1795582;80;21512;-72
2022/12/29 07:39:43;;;;;;;105.57;48.93;;;;;;;-2.61;81.97;96323.35;1795196;80;21009;-72
2022/12/29 07:42:09;;;;;;;54.30;28.63;;;;;;;-2.48;81.47;96328.22;1795618;80;21013;-73
2022/12/29 07:44:40;;;;;;;33.53;18.47;;;;;;;-2.53;80.94;96324.97;1795209;80;21026;-73
2022/12/29 07:47:18;;;;;;;116.40;51.93;;;;;;;-2.54;81.17;96328.39;1795610;80;21544;-73
2022/12/29 07:49:44;;;;;;;643.80;258.57;;;;;;;-2.42;81.62;96325.01;1795468;80;21015;-73
2022/12/29 07:52:11;;;;;;;387.23;160.10;;;;;;;-2.31;81.39;96312.16;1795670;80;21045;-72
2022/12/29 07:54:37;;;;;;;127.63;61.83;;;;;;;-2.33;80.59;96315.08;1795744;80;21505;-72
2022/12/29 07:57:05;;;;;;;86.83;42.43;;;;;;;-2.21;81.43;96316.02;1795599;80;20983;-72
2022/12/29 07:59:32;;;;;;;40.17;22.23;;;;;;;-2.09;81.31;96308.77;1795452;80;20995;-73
2022/12/29 08:01:59;;;;;;;40.30;22.50;;;;;;;-1.97;81.25;96313.16;1795503;80;21021;-72
2022/12/29 08:04:25;;;;;;;34.10;16.37;;;;;;;-1.96;80.71;96307.56;1795526;80;21030;-72
2022/12/29 08:06:52;;;;;;;12.63;6.57;;;;;;;-1.92;80.66;96309.85;1795494;80;21010;-73
2022/12/29 08:09:18;;;;;;;25.27;15.50;;;;;;;-1.90;80.45;96308.22;1795902;80;21002;-73
2022/12/29 08:11:45;;;;;;;15.50;9.07;;;;;;;-1.94;80.28;96298.17;1795600;80;20959;-73
2022/12/29 08:14:13;;;;;;;51.00;32.07;;;;;;;-1.96;80.36;96300.69;1795395;80;20992;-72
2022/12/29 08:16:39;;;;;;;32.10;17.83;;;;;;;-2.00;80.22;96303.08;1795444;80;21034;-71
2022/12/29 08:19:06;;;;;;;45.10;23.67;;;;;;;-1.97;80.45;96294.14;1795213;80;21109;-71
2022/12/29 08:21:32;;;;;;;68.33;30.40;;;;;;;-1.90;80.75;96294.87;1795492;80;21109;-71
2022/12/29 08:23:59;;;;;;;62.93;29.60;;;;;;;-1.77;81.32;96287.19;1795491;80;20986;-70
2022/12/29 08:26:25;;;;;;;68.40;31.10;;;;;;;-1.59;81.21;96290.91;1795489;80;21456;-70
2022/12/29 08:28:56;;;;;;;58.90;27.60;;;;;;;-1.47;81.14;96290.52;1795369;80;21055;-71
2022/12/29 08:31:23;;;;;;;26.40;11.90;;;;;;;-1.29;81.31;96294.22;1795519;80;20987;-71
2022/12/29 08:33:50;;;;;;;14.93;7.00;;;;;;;-1.13;81.10;96296.58;1795457;80;21057;-71
2022/12/29 08:36:17;;;;;;;19.83;10.97;;;;;;;-1.00;80.92;96292.73;1795262;80;21461;-71
2022/12/29 08:38:43;;;;;;;13.73;6.87;;;;;;;-0.88;79.83;96294.06;1795414;80;21065;-71
2022/12/29 08:41:10;;;;;;;38.03;21.63;;;;;;;-0.78;80.40;96293.98;1795533;80;21010;-71
2022/12/29 08:43:36;;;;;;;26.83;12.13;;;;;;;-0.76;79.78;96292.73;1795212;80;21006;-70
2022/12/29 08:46:03;;;;;;;36.50;17.37;;;;;;;-0.64;80.35;96301.37;1795545;80;21523;-70
2022/12/29 08:48:30;;;;;;;15.90;9.87;;;;;;;-0.60;79.98;96290.29;1795522;80;21002;-71
2022/12/29 08:50:56;;;;;;;25.40;15.47;;;;;;;-0.56;79.46;96297.33;1795254;80;20990;-71
2022/12/29 08:53:23;;;;;;;18.90;10.60;;;;;;;-0.53;79.42;96290.56;1795558;80;21496;-71
2022/12/29 08:55:59;;;;;;;28.37;17.97;;;;;;;-0.44;79.61;96296.47;1795479;80;21059;-70
2022/12/29 08:58:26;;;;;;;21.17;11.40;;;;;;;-0.32;79.52;96298.19;1759527;80;21011;-70
2022/12/29 09:00:55;;;;;;;18.07;10.77;;;;;;;-0.23;79.53;96297.22;1795469;80;21493;-71
2022/12/29 09:03:23;;;;;;;19.23;10.77;;;;;;;-0.12;79.46;96292.81;1795172;80;21002;-71
2022/12/29 09:05:53;;;;;;;17.13;10.83;;;;;;;-0.09;79.30;96297.67;1795352;80;21002;-71
2022/12/29 09:08:21;;;;;;;16.87;11.03;;;;;;;-0.02;79.24;96294.45;1795295;80;20987;-71
2022/12/29 09:10:49;;;;;;;20.70;11.43;;;;;;;0.04;79.35;96289.87;1759531;80;21457;-71
2022/12/29 09:13:16;;;;;;;23.23;12.57;;;;;;;0.11;79.17;96295.74;1795413;80;21023;-71
2022/12/29 09:15:43;;;;;;;21.80;12.33;;;;;;;0.15;78.71;96300.22;1795570;80;20959;-71
2022/12/29 09:18:12;;;;;;;21.00;12.33;;;;;;;0.20;78.24;96295.14;1795343;80;21029;-70
2022/12/29 09:20:38;;;;;;;21.17;12.57;;;;;;;0.26;78.91;96299.67;1789721;80;21083;-70
2022/12/29 09:23:08;;;;;;;43.03;26.57;;;;;;;0.36;78.94;96309.52;1787067;80;21014;-70
2022/12/29 09:25:34;;;;;;;16.23;10.70;;;;;;;0.42;78.82;96307.98;1787045;80;20975;-70
2022/12/29 09:28:05;;;;;;;19.30;10.97;;;;;;;0.51;78.81;96307.41;1787145;80;20979;-71
2022/12/29 09:30:29;;;;;;;19.40;11.63;;;;;;;0.57;78.43;96307.59;1786610;80;21027;-71
2022/12/29 09:32:56;;;;;;;17.07;10.43;;;;;;;0.66;78.63;96303.54;1787177;80;21047;-71
2022/12/29 09:35:22;;;;;;;18.50;11.80;;;;;;;0.75;78.74;96294.28;1787046;80;21026;-71
2022/12/29 09:37:49;;;;;;;17.13;10.60;;;;;;;0.85;78.44;96291.13;1787141;80;21015;-72
2022/12/29 09:40:31;;;;;;;15.43;10.57;;;;;;;0.94;78.45;96287.94;1786990;80;21557;-71
2022/12/29 09:43:28;;;;;;;25.00;15.03;;;;;;;1.00;78.11;96289.41;1774872;80;20994;-70
2022/12/29 09:46:26;;;;;;;23.57;13.00;;;;;;;1.05;77.45;96285.22;1782743;80;21497;-71
2022/12/29 09:49:26;;;;;;;22.10;13.53;;;;;;;1.20;77.89;96285.21;1787167;80;20974;-70
2022/12/29 09:51:56;;;;;;;26.17;14.73;;;;;;;1.49;76.68;96276.52;1786837;80;21042;-70
2022/12/29 09:54:48;;;;;;;40.97;22.90;;;;;;;1.90;73.83;96271.52;1786824;80;21827;-70
2022/12/29 09:57:20;;;;;;;27.80;14.83;;;;;;;2.24;72.35;96265.83;1787037;80;21485;-71
2022/12/29 09:59:49;;;;;;;25.20;15.60;;;;;;;2.61;72.33;96261.50;1787094;80;21045;-70
2022/12/29 10:02:24;;;;;;;32.40;17.73;;;;;;;2.96;71.41;96257.06;1787166;80;21540;-71
2022/12/29 10:04:51;;;;;;;23.37;14.90;;;;;;;3.30;69.31;96251.27;1786910;80;21014;-68
2022/12/29 10:07:47;;;;;;;21.60;14.63;;;;;;;3.57;68.39;96250.90;1786810;80;21115;-68
2022/12/29 10:10:28;;;;;;;20.87;14.33;;;;;;;3.84;70.04;96243.14;1786891;80;21023;-69
2022/12/29 10:13:06;;;;;;;21.97;14.20;;;;;;;4.23;67.24;96235.08;1787153;80;21063;-72
2022/12/29 10:15:50;;;;;;;24.70;15.73;;;;;;;4.44;65.37;96241.09;1786775;80;21019;-69
2022/12/29 10:18:34;;;;;;;23.37;14.47;;;;;;;4.67;65.82;96227.49;1786984;80;21039;-69
2022/12/29 10:21:27;;;;;;;23.20;14.97;;;;;;;4.98;63.85;96215.27;1785779;80;21039;-69
2022/12/29 10:23:56;;;;;;;24.80;15.32;;;;;;;5.24;62.62;96213.44;1787573;80;21019;-69
2022/12/29 10:26:28;;;;;;;20.23;13.07;;;;;;;5.44;62.73;96216.25;1787251;80;21529;-69
2022/12/29 10:29:05;;;;;;;22.83;14.17;;;;;;;5.75;61.27;96206.13;1785607;80;21058;-68
2022/12/29 10:31:39;;;;;;;17.55;12.18;;;;;;;5.87;58.90;96202.30;1787000;80;21082;-69
2022/12/29 10:34:34;;;;;;;15.20;10.30;;;;;;;6.28;61.41;96197.90;1729342;80;21027;-70
2022/12/29 10:37:24;;;;;;;13.83;9.40;;;;;;;6.58;58.59;96206.42;1786797;80;21083;-70
2022/12/29 10:39:53;;;;;;;16.15;10.10;;;;;;;6.86;57.10;96198.72;1787191;80;21089;-69
2022/12/29 10:42:37;;;;;;;14.68;10.43;;;;;;;7.26;58.50;96191.04;1787109;80;20994;-70
2022/12/29 10:45:06;;;;;;;16.00;10.80;;;;;;;7.65;56.43;96173.19;1787176;80;21050;-69
2022/12/29 10:47:38;;;;;;;17.80;12.10;;;;;;;8.08;57.42;96162.73;1787255;80;21018;-71
2022/12/29 10:50:06;;;;;;;16.67;11.53;;;;;;;8.20;53.50;96161.86;1786715;80;21014;-70
2022/12/29 10:52:37;;;;;;;21.80;12.47;;;;;;;8.24;53.42;96158.38;1787076;80;21014;-69
2022/12/29 10:55:09;;;;;;;19.05;11.70;;;;;;;8.23;52.37;96166.67;1787013;80;21519;-68
2022/12/29 10:57:45;;;;;;;24.02;12.23;;;;;;;8.38;51.76;96165.78;1787013;80;21049;-69
2022/12/29 11:00:20;;;;;;;18.32;11.05;;;;;;;8.69;52.93;96151.30;1787305;80;21066;-68
2022/12/29 11:03:18;;;;;;;15.35;11.38;;;;;;;8.79;50.24;96160.92;1787006;80;20994;-68
2022/12/29 11:06:14;;;;;;;18.15;11.15;;;;;;;8.94;50.24;96159.13;1786738;80;21011;-68
2022/12/29 11:08:49;;;;;;;14.80;10.43;;;;;;;9.11;48.70;96159.95;1787008;80;21086;-68
2022/12/29 11:11:26;;;;;;;15.45;10.88;;;;;;;9.50;49.54;96156.72;1785187;80;21015;-68
2022/12/29 11:14:01;;;;;;;11.22;9.18;;;;;;;9.70;47.57;96152.20;1787094;80;21460;-68
2022/12/29 11:16:34;;;;;;;12.93;8.33;;;;;;;9.97;47.18;96151.12;1784759;80;21481;-68
2022/12/29 11:19:02;;;;;;;9.40;7.10;;;;;;;10.30;46.33;96148.27;1787511;80;21054;-68
2022/12/29 11:21:33;;;;;;;11.12;8.13;;;;;;;10.12;43.86;96140.91;1787153;80;21058;-68
2022/12/29 11:24:25;;;;;;;10.93;7.40;;;;;;;9.91;44.01;96139.77;1787233;80;21034;-68
2022/12/29 11:26:59;;;;;;;11.12;7.80;;;;;;;9.62;43.65;96142.58;1754660;80;20987;-68
2022/12/29 11:29:41;;;;;;;9.75;6.92;;;;;;;9.30;45.12;96146.28;1786182;80;21003;-68
2022/12/29 11:32:18;;;;;;;14.55;8.60;;;;;;;9.01;44.73;96152.52;1786934;80;21532;-68
2022/12/29 11:34:45;;;;;;;12.65;8.45;;;;;;;8.83;46.08;96147.33;1787288;80;20998;-68
2022/12/29 11:37:29;;;;;;;10.10;7.30;;;;;;;8.80;47.20;96142.09;1787210;80;21438;-68
2022/12/29 11:40:07;;;;;;;9.28;7.03;;;;;;;8.85;45.97;96142.50;1787004;80;21644;-68
2022/12/29 11:42:45;;;;;;;13.65;8.83;;;;;;;8.93;47.06;96138.97;1787375;80;20979;-68
2022/12/29 11:45:32;;;;;;;10.48;7.87;;;;;;;9.12;46.85;96135.37;1787142;80;21496;-68
2022/12/29 11:48:03;;;;;;;36.40;18.52;;;;;;;9.07;45.49;96134.09;1787207;80;21003;-68
2022/12/29 11:50:33;;;;;;;28.20;15.68;;;;;;;8.92;46.31;96134.16;1786791;80;21011;-68
2022/12/29 11:53:05;;;;;;;11.05;8.70;;;;;;;8.58;46.16;96138.63;1786933;80;21065;-68
2022/12/29 11:55:32;;;;;;;12.15;8.30;;;;;;;8.57;47.81;96131.63;1787352;80;21035;-68
2022/12/29 11:58:02;;;;;;;12.28;8.45;;;;;;;8.70;48.03;96125.89;1753991;80;21082;-68
2022/12/29 12:00:34;;;;;;;9.88;7.47;;;;;;;8.67;47.88;96124.14;1787165;80;20986;-68
2022/12/29 12:03:21;;;;;;;11.48;8.53;;;;;;;8.60;47.92;96119.77;1787273;80;21015;-68
2022/12/29 12:06:01;;;;;;;10.90;7.87;;;;;;;8.64;49.09;96123.72;1787043;80;21030;-68
2022/12/29 12:08:51;;;;;;;12.88;8.88;;;;;;;8.80;48.64;96123.22;1786916;80;21082;-68
2022/12/29 12:11:26;;;;;;;12.33;8.60;;;;;;;9.12;48.02;96118.70;1787021;80;20998;-68
2022/12/29 12:14:00;;;;;;;9.65;8.00;;;;;;;9.37;47.58;96111.55;1787058;80;21015;-68
2022/12/29 12:16:39;;;;;;;10.25;7.55;;;;;;;9.49;45.87;96110.17;1787180;80;21531;-68
2022/12/29 12:19:29;;;;;;;11.78;7.33;;;;;;;9.37;47.72;96118.14;1787146;80;21517;-68
2022/12/29 12:22:07;;;;;;;11.03;7.30;;;;;;;8.94;47.32;96118.34;1788892;80;21019;-68
2022/12/29 12:24:41;;;;;;;10.70;8.05;;;;;;;8.68;47.25;96119.75;1795133;80;21035;-68